Time;durP1;ratioP1;P1;durP2;ratioP2;P2;SDS_P1;SDS_P2;PMS_P1;PMS_P2;Temp;Humidity;BMP_temperature;BMP_pressure;BME280_temperature;BME280_humidity;BME280_pressure;Samples;Min_cycle;Max_cycle;Signal;HPM_P1;HPM_P2
2021/06/23 00:02:13;;;;;;;9.07;3.75;;;15.50;82.60;;;;;;5032027;28;20022;-74
2021/06/23 00:04:39;;;;;;;9.45;3.83;;;15.50;82.70;;;;;;5032203;28;20074;-75
2021/06/23 00:07:05;;;;;;;6.28;3.58;;;15.50;82.70;;;;;;5031983;28;20496;-75
2021/06/23 00:09:31;;;;;;;6.82;3.75;;;15.50;82.80;;;;;;5032308;28;20022;-75
2021/06/23 00:11:57;;;;;;;7.57;4.03;;;15.50;83.00;;;;;;5031880;28;20420;-75
2021/06/23 00:14:23;;;;;;;4.90;2.85;;;15.50;82.80;;;;;;5032515;28;20037;-75
2021/06/23 00:16:50;;;;;;;11.32;3.67;;;15.50;83.00;;;;;;5032569;28;20346;-75
2021/06/23 00:19:16;;;;;;;7.82;3.85;;;15.50;83.10;;;;;;5033412;28;20108;-74
2021/06/23 00:21:42;;;;;;;7.28;3.15;;;15.50;83.00;;;;;;5033636;28;20432;-74
2021/06/23 00:24:07;;;;;;;6.05;3.35;;;15.50;82.90;;;;;;5031617;28;20520;-75
2021/06/23 00:26:35;;;;;;;8.30;3.95;;;15.50;83.00;;;;;;5033533;28;20065;-74
2021/06/23 00:29:01;;;;;;;5.93;3.60;;;15.50;83.00;;;;;;5032664;28;20025;-75
2021/06/23 00:31:28;;;;;;;8.65;3.08;;;15.50;83.00;;;;;;5033745;28;20060;-75
2021/06/23 00:33:56;;;;;;;4.53;3.17;;;15.50;83.00;;;;;;5032108;28;20048;-75
2021/06/23 00:36:22;;;;;;;9.10;3.33;;;15.50;83.10;;;;;;5033497;28;20025;-75
2021/06/23 00:38:48;;;;;;;5.32;3.22;;;15.50;83.20;;;;;;5031985;28;20362;-76
2021/06/23 01:01:17;;;;;;;5.20;2.90;;;15.20;83.40;;;;;;5082927;23;20051;-82
2021/06/23 01:03:44;;;;;;;4.80;3.10;;;15.20;83.40;;;;;;4969900;28;20035;-83
2021/06/23 01:06:10;;;;;;;4.57;2.70;;;15.20;83.40;;;;;;4966002;28;20023;-82
2021/06/23 01:08:36;;;;;;;5.63;3.25;;;15.30;83.30;;;;;;4984676;28;20026;-82
2021/06/23 01:11:06;;;;;;;5.68;3.20;;;15.20;83.20;;;;;;4992357;28;20029;-82
2021/06/23 01:13:45;;;;;;;4.75;3.22;;;15.30;83.30;;;;;;4993391;28;20022;-82
2021/06/23 01:16:12;;;;;;;5.00;3.20;;;15.30;83.40;;;;;;4974914;28;20037;-82
2021/06/23 01:18:39;;;;;;;4.40;3.22;;;15.20;83.40;;;;;;4975522;28;20029;-82
2021/06/23 01:21:06;;;;;;;7.93;3.25;;;15.30;83.50;;;;;;4974978;28;20023;-82
2021/06/23 01:23:32;;;;;;;8.32;3.25;;;15.30;83.40;;;;;;4975352;28;20100;-82
2021/06/23 01:25:58;;;;;;;5.15;3.30;;;15.20;83.40;;;;;;4975037;28;20447;-80
2021/06/23 01:28:24;;;;;;;5.72;2.97;;;15.30;83.60;;;;;;4992814;28;20467;-82
2021/06/23 01:30:50;;;;;;;6.15;2.97;;;15.30;83.60;;;;;;4992844;28;20025;-82
2021/06/23 01:33:16;;;;;;;7.07;3.08;;;15.30;83.60;;;;;;4992114;28;20062;-82
2021/06/23 01:35:45;;;;;;;5.95;3.75;;;15.30;83.60;;;;;;4992887;28;20142;-82
2021/06/23 01:38:11;;;;;;;6.40;3.20;;;15.30;83.80;;;;;;4991467;28;20022;-82
2021/06/23 01:40:37;;;;;;;6.93;3.13;;;15.30;83.70;;;;;;4992514;28;20029;-82
2021/06/23 01:43:03;;;;;;;5.80;3.25;;;15.30;83.70;;;;;;4974375;28;20139;-80
2021/06/23 01:45:28;;;;;;;6.60;3.00;;;15.30;83.70;;;;;;4975310;28;20046;-82
2021/06/23 01:47:55;;;;;;;7.30;3.25;;;15.30;83.70;;;;;;4993100;28;20414;-81
2021/06/23 01:50:22;;;;;;;6.75;3.30;;;15.30;83.80;;;;;;4974310;28;20283;-82
2021/06/23 01:52:47;;;;;;;7.05;3.63;;;15.30;83.90;;;;;;4975097;28;20027;-81
2021/06/23 01:55:27;;;;;;;5.88;3.20;;;15.30;83.90;;;;;;4974237;28;20092;-82
2021/06/23 01:57:57;;;;;;;5.70;3.47;;;15.30;83.70;;;;;;4992690;28;20056;-82
2021/06/23 02:00:31;;;;;;;7.78;3.10;;;15.30;84.20;;;;;;4974175;28;20026;-82
2021/06/23 02:03:07;;;;;;;5.43;2.90;;;15.30;83.60;;;;;;4974582;28;20061;-82
2021/06/23 02:05:50;;;;;;;6.45;3.25;;;15.30;83.80;;;;;;4992446;28;20035;-81
2021/06/23 02:08:26;;;;;;;7.30;3.03;;;15.30;83.80;;;;;;4974095;28;20030;-81
2021/06/23 02:11:06;;;;;;;4.82;2.92;;;15.30;83.70;;;;;;4974352;28;20092;-82
2021/06/23 02:14:01;;;;;;;7.38;3.67;;;15.30;83.80;;;;;;4974958;28;20023;-82
2021/06/23 02:16:29;;;;;;;6.28;3.10;;;15.30;83.90;;;;;;4974125;28;20026;-82
2021/06/23 02:19:01;;;;;;;6.85;3.15;;;15.30;83.70;;;;;;4974779;28;20027;-82
2021/06/23 02:21:29;;;;;;;9.93;2.78;;;15.30;83.70;;;;;;4991765;28;20022;-82
2021/06/23 02:23:55;;;;;;;9.88;3.13;;;15.30;83.60;;;;;;4992203;28;20039;-80
2021/06/23 02:26:21;;;;;;;4.13;2.40;;;15.30;83.70;;;;;;4991546;28;20034;-82
2021/06/23 02:28:46;;;;;;;7.40;2.92;;;15.30;83.70;;;;;;4974990;28;20054;-82
2021/06/23 02:31:13;;;;;;;8.18;3.38;;;15.30;83.80;;;;;;4977665;28;20022;-83
2021/06/23 02:33:41;;;;;;;6.63;3.22;;;15.30;83.80;;;;;;4994911;28;20030;-81
2021/06/23 02:36:07;;;;;;;5.28;3.28;;;15.30;83.70;;;;;;4991551;28;20445;-80
2021/06/23 02:38:33;;;;;;;6.60;3.03;;;15.30;83.60;;;;;;4991922;28;20470;-81
2021/06/23 02:40:59;;;;;;;6.55;2.80;;;15.30;83.60;;;;;;4992115;28;20037;-82
2021/06/23 02:43:25;;;;;;;7.18;3.22;;;15.30;83.60;;;;;;4991511;28;20049;-81
2021/06/23 02:45:53;;;;;;;5.20;3.28;;;15.30;83.50;;;;;;4974770;28;20031;-81
2021/06/23 02:48:20;;;;;;;6.43;3.17;;;15.30;83.60;;;;;;4991283;28;20024;-81
2021/06/23 02:51:22;;;;;;;5.80;2.85;;;15.30;83.60;;;;;;4974474;28;20022;-81
2021/06/23 02:53:48;;;;;;;;;;;15.30;83.60;;;;;;4972946;28;20089;-81
2021/06/23 02:56:16;;;;;;;10.60;3.30;;;15.30;83.40;;;;;;4990442;28;20273;-81
2021/06/23 02:58:43;;;;;;;5.15;2.60;;;15.30;83.30;;;;;;4992471;28;20096;-82
2021/06/23 03:01:10;;;;;;;7.20;3.20;;;15.30;83.30;;;;;;4991501;28;20061;-79
2021/06/23 03:03:37;;;;;;;7.82;3.20;;;15.20;83.40;;;;;;4974778;28;20410;-81
2021/06/23 03:06:03;;;;;;;6.68;3.50;;;15.30;83.60;;;;;;4976965;28;20121;-81
2021/06/23 03:08:29;;;;;;;5.60;3.47;;;15.20;83.60;;;;;;4976178;28;20014;-82
2021/06/23 03:10:56;;;;;;;6.57;2.97;;;15.30;83.60;;;;;;4995324;28;20050;-82
2021/06/23 03:13:21;;;;;;;7.93;3.47;;;15.30;83.60;;;;;;4976380;28;20037;-82
2021/06/23 03:15:47;;;;;;;5.85;3.03;;;15.30;83.50;;;;;;4974694;28;20027;-82
2021/06/23 03:18:13;;;;;;;5.35;2.67;;;15.30;83.40;;;;;;4990914;28;20033;-81
2021/06/23 03:20:38;;;;;;;8.25;3.72;;;15.30;83.50;;;;;;4991630;28;20030;-82
2021/06/23 03:23:04;;;;;;;6.95;3.35;;;15.20;83.50;;;;;;4975611;28;20105;-82
2021/06/23 03:25:30;;;;;;;6.82;2.97;;;15.20;83.40;;;;;;4994170;28;20501;-82
2021/06/23 03:27:58;;;;;;;6.22;3.25;;;15.20;83.50;;;;;;4977577;28;20026;-82
2021/06/23 03:30:25;;;;;;;6.18;3.30;;;15.20;84.20;;;;;;4976689;28;20109;-82
2021/06/23 03:32:51;;;;;;;7.30;2.75;;;15.20;83.60;;;;;;4995276;28;20474;-82
2021/06/23 03:35:22;;;;;;;5.35;3.50;;;15.20;83.60;;;;;;4976363;28;20022;-82
2021/06/23 03:37:53;;;;;;;5.70;2.88;;;15.20;83.70;;;;;;4977579;28;20018;-82
2021/06/23 03:40:20;;;;;;;6.32;3.40;;;15.20;83.50;;;;;;4994341;28;20098;-81
2021/06/23 03:42:47;;;;;;;6.13;3.30;;;15.20;83.60;;;;;;4995120;28;20045;-81
2021/06/23 03:45:13;;;;;;;6.55;3.25;;;15.20;83.50;;;;;;4976577;28;20394;-80
2021/06/23 03:47:43;;;;;;;10.32;3.38;;;15.20;83.50;;;;;;4977164;28;20022;-82
2021/06/23 03:50:10;;;;;;;6.15;3.30;;;15.20;83.60;;;;;;4977219;28;20067;-81
2021/06/23 03:52:36;;;;;;;5.70;3.30;;;15.20;83.50;;;;;;4977224;28;20073;-82
2021/06/23 03:55:04;;;;;;;8.73;3.42;;;15.20;83.40;;;;;;4994652;28;20036;-82
2021/06/23 03:57:30;;;;;;;6.80;3.38;;;15.20;83.30;;;;;;4976285;28;20614;-82
2021/06/23 03:59:55;;;;;;;6.90;3.33;;;15.20;84.00;;;;;;4977133;28;20080;-82
2021/06/23 04:02:21;;;;;;;5.07;3.05;;;15.20;83.50;;;;;;4993580;28;20411;-82
2021/06/23 04:04:47;;;;;;;7.10;3.05;;;15.20;83.40;;;;;;4977013;28;20149;-82
2021/06/23 04:07:13;;;;;;;7.45;3.22;;;15.20;83.40;;;;;;4976206;28;20023;-81
2021/06/23 04:09:39;;;;;;;5.40;2.75;;;15.20;83.40;;;;;;4976731;28;20034;-82
2021/06/23 04:12:06;;;;;;;9.32;3.15;;;15.20;83.30;;;;;;4976905;28;20029;-83
2021/06/23 04:14:31;;;;;;;6.13;2.75;;;15.20;83.40;;;;;;4985793;28;20046;-82
2021/06/23 04:16:57;;;;;;;7.00;3.17;;;15.30;83.50;;;;;;4979053;28;20044;-83
2021/06/23 04:19:24;;;;;;;9.05;3.30;;;15.20;83.40;;;;;;4993469;28;20015;-83
2021/06/23 04:21:50;;;;;;;6.43;3.30;;;15.30;83.40;;;;;;4976499;28;20015;-82
2021/06/23 04:24:16;;;;;;;9.50;3.20;;;15.30;83.40;;;;;;4993245;28;20045;-82
2021/06/23 04:26:43;;;;;;;6.88;3.00;;;15.30;83.40;;;;;;4976345;28;20026;-82
2021/06/23 04:29:09;;;;;;;7.07;3.33;;;15.40;83.40;;;;;;4976127;28;20474;-81
2021/06/23 04:31:35;;;;;;;11.05;5.07;;;15.40;83.30;;;;;;4992582;28;20050;-83
2021/06/23 04:34:00;;;;;;;10.23;4.13;;;15.40;83.30;;;;;;4993132;28;20186;-82
2021/06/23 04:36:26;;;;;;;7.82;3.92;;;15.40;83.30;;;;;;4992737;28;20371;-83
2021/06/23 04:38:52;;;;;;;8.98;3.60;;;15.40;83.30;;;;;;4976477;28;20030;-83
2021/06/23 04:41:17;;;;;;;8.27;3.08;;;15.40;83.20;;;;;;4975622;28;20023;-82
2021/06/23 04:43:43;;;;;;;5.72;3.40;;;15.40;83.10;;;;;;4993334;28;20034;-83
2021/06/23 04:46:08;;;;;;;6.75;3.33;;;15.50;83.00;;;;;;4976197;28;20073;-83
2021/06/23 04:48:34;;;;;;;7.57;3.10;;;15.40;82.90;;;;;;4993440;28;20080;-83
2021/06/23 04:51:01;;;;;;;8.90;3.47;;;15.50;83.00;;;;;;4976411;28;20048;-83
2021/06/23 04:53:26;;;;;;;7.03;3.05;;;15.40;83.00;;;;;;4975636;28;20126;-83
2021/06/23 04:55:54;;;;;;;6.88;3.15;;;15.50;83.10;;;;;;4993663;28;20486;-83
2021/06/23 04:58:20;;;;;;;6.47;3.30;;;15.50;83.00;;;;;;4993231;28;20105;-83
2021/06/23 05:00:46;;;;;;;4.18;2.70;;;15.50;83.10;;;;;;4993179;28;20041;-82
2021/06/23 05:03:11;;;;;;;6.22;2.78;;;15.50;83.00;;;;;;4993864;28;20034;-81
2021/06/23 05:05:39;;;;;;;5.97;3.30;;;15.50;83.00;;;;;;4993056;28;20039;-83
2021/06/23 05:08:05;;;;;;;6.97;3.28;;;15.50;83.00;;;;;;4976119;28;20026;-87
2021/06/23 05:10:31;;;;;;;6.50;2.97;;;15.50;82.90;;;;;;4992486;28;20034;-77
2021/06/23 05:12:56;;;;;;;5.55;2.88;;;15.50;82.80;;;;;;4993679;28;20033;-77
2021/06/23 05:15:22;;;;;;;5.00;2.60;;;15.50;82.60;;;;;;4992766;28;20030;-79
2021/06/23 05:17:48;;;;;;;6.10;3.10;;;15.50;82.60;;;;;;4975882;28;20129;-75
2021/06/23 05:20:14;;;;;;;6.35;2.72;;;15.50;82.60;;;;;;4990782;28;20030;-77
2021/06/23 05:22:40;;;;;;;4.22;2.70;;;15.50;82.70;;;;;;4973332;28;20034;-77
2021/06/23 05:25:07;;;;;;;4.97;2.83;;;15.50;82.60;;;;;;4991140;28;20031;-81
2021/06/23 05:27:32;;;;;;;6.63;3.05;;;15.60;82.50;;;;;;4973106;28;20363;-81
2021/06/23 05:29:58;;;;;;;7.25;3.78;;;15.60;82.40;;;;;;4991121;28;20029;-80
2021/06/23 05:32:24;;;;;;;7.03;3.47;;;15.60;82.10;;;;;;4990126;28;20491;-80
2021/06/23 05:34:50;;;;;;;6.93;2.53;;;15.70;82.10;;;;;;4990985;28;20117;-79
2021/06/23 05:37:16;;;;;;;6.20;2.92;;;15.70;82.10;;;;;;4973732;28;20058;-77
2021/06/23 05:39:41;;;;;;;4.47;2.42;;;15.70;82.00;;;;;;4990650;28;20286;-77
2021/06/23 05:42:07;;;;;;;6.22;2.97;;;15.70;82.30;;;;;;4973566;28;20426;-77
2021/06/23 05:44:33;;;;;;;5.38;3.00;;;15.60;82.00;;;;;;4989551;28;20376;-77
2021/06/23 05:46:59;;;;;;;7.18;2.58;;;15.70;82.00;;;;;;4990732;28;20022;-77
2021/06/23 05:49:25;;;;;;;5.95;2.63;;;15.70;81.80;;;;;;4990517;28;20029;-77
2021/06/23 05:51:51;;;;;;;5.82;2.63;;;15.80;81.70;;;;;;4991281;28;20097;-79
2021/06/23 05:54:16;;;;;;;6.95;2.97;;;15.90;81.70;;;;;;4992429;28;20022;-80
2021/06/23 05:56:42;;;;;;;5.72;3.35;;;15.90;81.60;;;;;;4991960;28;20533;-80
2021/06/23 05:59:08;;;;;;;6.88;2.42;;;16.10;81.40;;;;;;4975168;28;20122;-80
2021/06/23 06:01:34;;;;;;;7.97;2.97;;;16.10;81.20;;;;;;4974079;28;20038;-80
2021/06/23 06:03:59;;;;;;;7.45;2.50;;;16.20;81.00;;;;;;4992405;28;20383;-80
2021/06/23 06:06:25;;;;;;;3.80;2.13;;;16.20;80.70;;;;;;4974609;28;20495;-79
2021/06/23 06:08:50;;;;;;;8.90;2.70;;;16.30;80.60;;;;;;4975117;28;20022;-79
2021/06/23 06:11:16;;;;;;;4.78;2.13;;;16.30;80.50;;;;;;4975178;28;20477;-80
2021/06/23 06:13:42;;;;;;;4.00;2.00;;;16.40;80.20;;;;;;4991943;28;20053;-79
2021/06/23 06:16:08;;;;;;;4.32;2.00;;;16.30;80.00;;;;;;4992572;28;20034;-79
2021/06/23 06:18:33;;;;;;;5.10;1.88;;;16.40;80.10;;;;;;4974504;28;20015;-79
2021/06/23 06:21:00;;;;;;;4.05;2.10;;;16.40;80.10;;;;;;4975004;28;20030;-80
2021/06/23 06:23:26;;;;;;;5.32;2.45;;;16.40;79.80;;;;;;4974354;28;20060;-79
2021/06/23 06:25:52;;;;;;;5.63;2.10;;;16.40;79.80;;;;;;4974825;28;20037;-80
2021/06/23 06:28:19;;;;;;;5.28;3.15;;;16.50;79.80;;;;;;4974974;28;20029;-79
2021/06/23 06:30:45;;;;;;;4.15;2.40;;;16.60;79.70;;;;;;4974409;28;20026;-79
2021/06/23 06:33:11;;;;;;;3.72;2.20;;;16.60;79.50;;;;;;4992720;28;20080;-79
2021/06/23 06:35:36;;;;;;;4.85;2.20;;;16.70;79.40;;;;;;4974290;28;20027;-79
2021/06/23 06:38:02;;;;;;;4.53;2.20;;;16.80;79.20;;;;;;4974824;28;20023;-80
2021/06/23 06:40:28;;;;;;;6.35;2.00;;;16.90;79.10;;;;;;4974166;28;20035;-78
2021/06/23 06:42:54;;;;;;;5.50;2.20;;;16.90;79.00;;;;;;4992563;28;20026;-78
2021/06/23 06:45:20;;;;;;;3.88;2.15;;;17.00;78.80;;;;;;4991929;28;20041;-79
2021/06/23 06:47:46;;;;;;;6.18;2.17;;;16.90;78.70;;;;;;4973969;28;20033;-79
2021/06/23 06:50:12;;;;;;;3.97;2.17;;;17.00;79.30;;;;;;4974912;28;20022;-79
2021/06/23 06:52:38;;;;;;;5.25;2.22;;;17.10;78.70;;;;;;4991895;28;20026;-79
2021/06/23 06:55:06;;;;;;;2.95;2.22;;;17.10;78.60;;;;;;4974681;28;20027;-79
2021/06/23 06:57:32;;;;;;;6.05;2.45;;;17.10;78.60;;;;;;4992178;28;20463;-79
2021/06/23 06:59:58;;;;;;;5.70;2.35;;;17.20;78.50;;;;;;4978383;28;20035;-80
2021/06/23 07:02:24;;;;;;;6.07;2.30;;;17.20;78.30;;;;;;4994908;28;20054;-78
2021/06/23 07:04:50;;;;;;;4.38;2.15;;;17.20;78.30;;;;;;4978263;28;20061;-79
2021/06/23 07:07:16;;;;;;;3.35;2.30;;;17.20;78.20;;;;;;4995751;28;20088;-79
2021/06/23 07:09:41;;;;;;;4.97;2.20;;;17.20;78.00;;;;;;4995239;28;20420;-79
2021/06/23 07:12:08;;;;;;;2.95;1.98;;;17.20;77.90;;;;;;4978372;28;20029;-80
2021/06/23 07:14:33;;;;;;;4.25;1.90;;;17.20;77.90;;;;;;4977499;28;20443;-80
2021/06/23 07:16:59;;;;;;;4.15;2.03;;;17.20;77.60;;;;;;4978098;28;20049;-79
2021/06/23 07:19:25;;;;;;;3.70;2.00;;;17.30;77.70;;;;;;4977368;28;20026;-79
2021/06/23 07:21:51;;;;;;;3.25;2.08;;;17.30;77.50;;;;;;4978097;28;20049;-80
2021/06/23 07:24:18;;;;;;;3.15;1.98;;;17.40;77.50;;;;;;4977924;28;20050;-80
2021/06/23 07:26:45;;;;;;;4.45;2.28;;;17.50;77.30;;;;;;4977296;28;20030;-80
2021/06/23 07:29:11;;;;;;;3.65;2.03;;;17.50;77.10;;;;;;4995365;28;20114;-79
2021/06/23 07:31:55;;;;;;;4.78;2.28;;;17.50;77.10;;;;;;4994420;28;20105;-79
2021/06/23 07:36:49;;;;;;;3.97;2.00;;;17.50;76.80;;;;;;4994630;28;20031;-79
2021/06/23 07:39:17;;;;;;;6.72;2.13;;;17.50;76.80;;;;;;4977501;28;20113;-80
2021/06/23 07:41:47;;;;;;;6.22;1.95;;;17.50;76.70;;;;;;4994592;28;20057;-80
2021/06/23 07:44:17;;;;;;;4.20;1.95;;;17.50;76.20;;;;;;4977753;28;20134;-79
2021/06/23 07:46:55;;;;;;;5.57;2.20;;;17.50;76.20;;;;;;4977145;28;20373;-79
2021/06/23 07:49:22;;;;;;;4.07;2.25;;;17.40;76.10;;;;;;4977547;28;20026;-79
2021/06/23 07:51:57;;;;;;;3.95;2.13;;;17.40;76.30;;;;;;4994337;28;20589;-80
2021/06/23 07:54:42;;;;;;;4.63;2.15;;;17.60;76.40;;;;;;4995145;28;20022;-79
2021/06/23 08:10:31;;;;;;;3.97;2.13;;;18.00;75.20;;;;;;4993734;28;20085;-80
2021/06/23 08:12:58;;;;;;;4.95;2.30;;;18.00;75.00;;;;;;4977211;28;20404;-80
2021/06/23 08:15:29;;;;;;;5.60;2.10;;;18.00;75.10;;;;;;4994540;28;20133;-79
2021/06/23 08:17:56;;;;;;;3.22;1.85;;;17.90;75.00;;;;;;4994666;28;20026;-79
2021/06/23 08:20:22;;;;;;;6.20;1.77;;;17.80;75.10;;;;;;4976979;28;20081;-80
2021/06/23 08:22:48;;;;;;;4.15;2.13;;;17.70;75.20;;;;;;4976197;28;20383;-79
2021/06/23 08:25:15;;;;;;;7.85;2.30;;;17.60;75.30;;;;;;4994318;28;20356;-79
2021/06/23 08:27:41;;;;;;;4.15;2.10;;;17.50;75.50;;;;;;4976071;28;20053;-79
2021/06/23 08:30:09;;;;;;;3.72;2.10;;;17.50;75.80;;;;;;4994212;28;20072;-80
2021/06/23 08:32:35;;;;;;;4.70;2.20;;;17.50;76.10;;;;;;4975854;28;20019;-79
2021/06/23 08:35:01;;;;;;;3.58;1.95;;;17.60;76.20;;;;;;4976487;28;20061;-79
2021/06/23 08:37:27;;;;;;;4.93;1.95;;;17.70;75.60;;;;;;4976659;28;20407;-79
2021/06/23 08:39:52;;;;;;;4.43;2.10;;;17.90;75.10;;;;;;4993220;28;20027;-79
2021/06/23 08:42:22;;;;;;;3.85;1.92;;;18.10;74.90;;;;;;4976563;28;20109;-79
2021/06/23 08:44:48;;;;;;;5.28;1.67;;;18.30;74.30;;;;;;4975846;28;20031;-79
2021/06/23 08:47:14;;;;;;;3.67;1.80;;;18.40;73.40;;;;;;4994080;28;20105;-80
2021/06/23 08:49:43;;;;;;;3.70;1.70;;;18.50;72.90;;;;;;4975737;28;20132;-79
2021/06/23 08:52:09;;;;;;;6.30;1.77;;;18.70;72.60;;;;;;4993366;28;20101;-79
2021/06/23 08:54:35;;;;;;;4.18;1.75;;;18.70;72.20;;;;;;4975618;28;20449;-79
2021/06/23 08:57:00;;;;;;;7.40;2.10;;;18.80;71.80;;;;;;4976483;28;20023;-79
2021/06/23 08:59:26;;;;;;;4.88;1.73;;;18.80;71.30;;;;;;4976289;28;20034;-80
2021/06/23 09:01:52;;;;;;;5.90;2.00;;;18.80;72.10;;;;;;4975273;28;20137;-79
2021/06/23 09:04:18;;;;;;;3.75;1.45;;;18.80;71.10;;;;;;4976019;28;20117;-79
2021/06/23 09:06:48;;;;;;;2.13;1.45;;;18.80;70.90;;;;;;4992979;28;20022;-80
2021/06/23 09:09:16;;;;;;;4.53;1.65;;;18.80;71.00;;;;;;4976022;28;20022;-80
2021/06/23 09:11:42;;;;;;;3.97;1.65;;;18.90;70.70;;;;;;4975331;28;20371;-79
2021/06/23 09:14:14;;;;;;;4.72;1.58;;;19.00;71.00;;;;;;4976008;28;20057;-80
2021/06/23 09:17:16;;;;;;;4.13;1.92;;;19.00;70.20;;;;;;4975145;28;20031;-80
2021/06/23 09:20:08;;;;;;;4.38;1.80;;;19.00;70.20;;;;;;4975137;28;20041;-80
2021/06/23 09:22:40;;;;;;;6.05;1.45;;;19.10;70.10;;;;;;4972632;28;20038;-80
2021/06/23 09:25:23;;;;;;;4.82;1.67;;;19.30;69.90;;;;;;4975739;28;20096;-79
2021/06/23 09:27:54;;;;;;;4.78;1.80;;;19.40;69.50;;;;;;4975296;28;20019;-80
2021/06/23 09:30:27;;;;;;;4.35;1.65;;;19.40;69.40;;;;;;4975816;28;20054;-80
2021/06/23 09:33:10;;;;;;;4.53;1.80;;;19.40;69.00;;;;;;4975070;28;20391;-80
2021/06/23 09:35:38;;;;;;;4.30;1.73;;;19.50;69.00;;;;;;4974949;28;20080;-80
2021/06/23 09:38:05;;;;;;;3.80;1.77;;;19.40;69.00;;;;;;4975610;28;20052;-80
2021/06/23 09:40:40;;;;;;;1.90;1.20;;;19.40;69.10;;;;;;4993006;28;20026;-80
2021/06/23 09:43:07;;;;;;;2.78;1.60;;;19.40;69.20;;;;;;4975378;28;20037;-80
2021/06/23 09:45:33;;;;;;;3.55;1.52;;;19.30;69.10;;;;;;4975389;28;20161;-80
2021/06/23 09:48:07;;;;;;;2.83;1.45;;;19.30;69.30;;;;;;4974698;28;20077;-79
2021/06/23 09:50:35;;;;;;;3.22;1.60;;;19.30;69.10;;;;;;4975458;28;20117;-79
2021/06/23 09:53:09;;;;;;;3.65;1.50;;;19.40;68.90;;;;;;4992764;28;20027;-79
2021/06/23 09:55:42;;;;;;;7.18;1.70;;;19.40;68.50;;;;;;4975249;28;20102;-80
2021/06/23 09:58:16;;;;;;;3.45;1.45;;;19.40;68.50;;;;;;4992627;28;20046;-80
2021/06/23 10:01:05;;;;;;;4.57;1.88;;;19.50;68.50;;;;;;4992180;28;20064;-79
2021/06/23 10:03:58;;;;;;;6.45;1.77;;;19.60;67.70;;;;;;4952844;29;20067;-79
2021/06/23 10:06:25;;;;;;;2.42;1.70;;;19.70;67.90;;;;;;4952923;29;20106;-79
2021/06/23 10:08:52;;;;;;;2.33;1.45;;;19.70;67.60;;;;;;4952040;29;20023;-80
2021/06/23 10:11:30;;;;;;;3.63;1.85;;;19.80;67.50;;;;;;4953963;28;20062;-80
2021/06/23 10:13:57;;;;;;;2.08;1.58;;;20.00;67.40;;;;;;4951739;29;20366;-80
2021/06/23 10:16:24;;;;;;;3.70;1.50;;;20.10;67.10;;;;;;4952502;29;20372;-79
2021/06/23 10:18:53;;;;;;;3.33;1.42;;;20.20;66.70;;;;;;4952939;28;20050;-80
2021/06/23 10:21:19;;;;;;;4.88;1.60;;;20.30;66.70;;;;;;4953037;29;20494;-79
2021/06/23 10:23:46;;;;;;;3.10;1.60;;;20.40;66.30;;;;;;4951959;29;20027;-80
2021/06/23 10:26:12;;;;;;;4.38;1.40;;;20.40;65.80;;;;;;4952660;29;20058;-80
2021/06/23 10:28:38;;;;;;;4.95;2.15;;;20.50;65.70;;;;;;4951826;29;20433;-79
2021/06/23 10:31:05;;;;;;;7.38;2.65;;;20.60;65.30;;;;;;4952504;29;20024;-80
2021/06/23 10:33:37;;;;;;;4.90;1.98;;;20.70;65.00;;;;;;4954775;28;20078;-80
2021/06/23 10:36:04;;;;;;;3.65;1.85;;;20.80;64.60;;;;;;4956290;29;20491;-79
2021/06/23 10:38:30;;;;;;;4.20;1.80;;;20.90;64.40;;;;;;4956368;29;20122;-80
2021/06/23 10:40:57;;;;;;;3.38;1.50;;;21.00;64.10;;;;;;4955553;29;20518;-79
2021/06/23 10:43:23;;;;;;;4.10;1.70;;;21.10;63.80;;;;;;4956384;29;20024;-78
2021/06/23 10:45:49;;;;;;;4.75;1.60;;;21.20;63.50;;;;;;4956867;28;20127;-79
2021/06/23 10:48:15;;;;;;;4.03;1.65;;;21.30;63.40;;;;;;4956389;29;20024;-79
2021/06/23 10:50:41;;;;;;;3.95;1.58;;;21.30;63.20;;;;;;4956576;28;20450;-79
2021/06/23 10:53:28;;;;;;;3.88;1.65;;;21.50;62.90;;;;;;4956031;29;20023;-80
2021/06/23 10:55:54;;;;;;;3.88;1.70;;;21.60;62.60;;;;;;4946230;29;20070;-79
2021/06/23 10:58:33;;;;;;;1.95;1.65;;;21.70;62.50;;;;;;4957281;28;20019;-80
2021/06/23 11:01:11;;;;;;;3.33;1.50;;;21.80;62.00;;;;;;4955235;29;20468;-80
2021/06/23 11:03:59;;;;;;;2.72;1.38;;;21.90;61.80;;;;;;4974662;28;20426;-80
2021/06/23 11:06:45;;;;;;;5.18;2.15;;;21.90;61.80;;;;;;4975201;28;20043;-81
2021/06/23 11:09:21;;;;;;;3.60;1.60;;;22.00;61.40;;;;;;4976856;28;20023;-79
2021/06/23 11:11:47;;;;;;;5.95;2.03;;;22.00;61.30;;;;;;4974368;28;20034;-80
2021/06/23 11:14:17;;;;;;;3.08;1.42;;;22.00;61.40;;;;;;4976283;28;20053;-80
2021/06/23 11:16:42;;;;;;;5.07;1.95;;;22.00;61.40;;;;;;4975698;28;20063;-81
2021/06/23 11:19:09;;;;;;;3.70;1.58;;;21.90;61.30;;;;;;4976400;28;20054;-81
2021/06/23 11:21:35;;;;;;;3.50;1.70;;;21.80;61.30;;;;;;4975021;28;20522;-81
2021/06/23 11:24:03;;;;;;;3.60;1.50;;;21.80;61.50;;;;;;4975639;28;20311;-81
2021/06/23 11:26:28;;;;;;;2.33;1.52;;;21.80;61.30;;;;;;4974957;28;20117;-81
2021/06/23 11:28:55;;;;;;;3.47;1.70;;;22.00;60.90;;;;;;4974289;28;20531;-81
2021/06/23 11:31:22;;;;;;;2.90;1.40;;;22.10;60.50;;;;;;4975958;28;20471;-81
2021/06/23 11:33:54;;;;;;;2.10;1.48;;;22.10;60.70;;;;;;4975982;28;20034;-82
2021/06/23 11:36:20;;;;;;;12.18;2.20;;;22.30;60.40;;;;;;4975094;28;20023;-80
2021/06/23 11:38:48;;;;;;;3.83;1.42;;;22.40;60.20;;;;;;4975269;28;20081;-80
2021/06/23 11:41:15;;;;;;;4.68;1.55;;;22.60;59.90;;;;;;4974461;28;20122;-79
2021/06/23 11:43:42;;;;;;;1.50;1.10;;;22.70;59.60;;;;;;4975545;28;20114;-79
2021/06/23 11:46:08;;;;;;;3.00;1.65;;;22.90;59.10;;;;;;4975406;28;20035;-80
2021/06/23 11:48:36;;;;;;;3.53;1.63;;;23.00;58.80;;;;;;4974398;28;20074;-80
2021/06/23 11:51:02;;;;;;;4.40;1.52;;;22.90;58.40;;;;;;4975071;28;20023;-80
2021/06/23 11:53:28;;;;;;;2.95;1.33;;;22.90;58.70;;;;;;4975584;28;20058;-80
2021/06/23 11:55:53;;;;;;;4.22;1.35;;;22.90;58.50;;;;;;4973666;28;20073;-80
2021/06/23 11:58:19;;;;;;;4.00;1.60;;;22.80;58.50;;;;;;4975147;28;20113;-79
2021/06/23 12:00:46;;;;;;;5.55;1.73;;;22.70;58.50;;;;;;4974924;28;20115;-80
2021/06/23 12:03:15;;;;;;;6.35;1.75;;;22.70;58.40;;;;;;4973690;28;20064;-79
2021/06/23 12:05:41;;;;;;;1.77;1.40;;;22.70;58.50;;;;;;4975003;28;20030;-80
2021/06/23 12:08:07;;;;;;;2.90;1.50;;;22.70;58.30;;;;;;4973355;28;20113;-80
2021/06/23 12:10:34;;;;;;;2.97;1.58;;;22.60;58.20;;;;;;4973848;28;20118;-79
2021/06/23 12:13:00;;;;;;;3.20;1.50;;;22.70;58.00;;;;;;4973208;28;20027;-79
2021/06/23 12:15:27;;;;;;;8.15;2.20;;;22.90;57.50;;;;;;4973791;28;20023;-79
2021/06/23 12:17:55;;;;;;;2.35;1.60;;;23.10;57.40;;;;;;4974422;28;20113;-80
2021/06/23 12:20:22;;;;;;;4.35;1.60;;;23.20;57.20;;;;;;4973671;28;20015;-79
2021/06/23 12:22:55;;;;;;;8.45;2.03;;;23.30;57.00;;;;;;4973069;28;20033;-79
2021/06/23 12:25:22;;;;;;;5.22;1.60;;;23.30;57.00;;;;;;4973807;28;20023;-81
2021/06/23 12:27:48;;;;;;;2.72;1.65;;;23.20;57.10;;;;;;4974657;28;20415;-81
2021/06/23 12:30:14;;;;;;;2.17;1.40;;;23.10;57.30;;;;;;4973174;28;20022;-78
2021/06/23 12:32:39;;;;;;;3.33;1.65;;;22.90;57.30;;;;;;4973528;28;20379;-81
2021/06/23 12:35:06;;;;;;;1.73;1.38;;;22.80;57.30;;;;;;4974342;28;20033;-80
2021/06/23 12:37:33;;;;;;;3.65;1.42;;;22.60;57.60;;;;;;4973489;28;20093;-81
2021/06/23 12:39:59;;;;;;;5.35;1.95;;;22.60;57.60;;;;;;4972738;28;20192;-81
2021/06/23 12:42:24;;;;;;;3.20;1.20;;;22.50;57.70;;;;;;4973595;28;20057;-78
2021/06/23 12:44:50;;;;;;;4.00;1.60;;;22.60;57.90;;;;;;4973755;28;20460;-79
2021/06/23 12:47:16;;;;;;;4.28;1.90;;;22.80;57.50;;;;;;4974368;28;20038;-81
2021/06/23 12:49:41;;;;;;;4.13;1.63;;;22.80;57.40;;;;;;4974834;28;20453;-80
2021/06/23 12:52:08;;;;;;;7.03;1.77;;;22.90;57.20;;;;;;4972575;28;20147;-81
2021/06/23 12:54:33;;;;;;;7.47;1.90;;;22.90;56.80;;;;;;4973073;28;20031;-80
2021/06/23 12:56:59;;;;;;;1457.20;221.18;;;23.00;56.70;;;;;;4973441;28;20023;-80
2021/06/23 12:59:29;;;;;;;233.95;35.70;;;23.10;56.60;;;;;;4973866;28;20106;-80
2021/06/23 13:01:56;;;;;;;20.50;4.20;;;23.20;56.60;;;;;;4974642;28;20031;-80
2021/06/23 13:04:21;;;;;;;7.22;2.47;;;23.40;56.20;;;;;;4976281;28;20027;-80
2021/06/23 13:06:47;;;;;;;11.27;2.78;;;23.30;56.20;;;;;;4976141;28;20026;-80
2021/06/23 13:09:13;;;;;;;141.90;15.18;;;23.30;56.50;;;;;;4975424;28;20430;-80
2021/06/23 13:11:39;;;;;;;8.30;3.53;;;23.20;56.50;;;;;;4993173;28;20105;-80
2021/06/23 13:14:04;;;;;;;6.10;1.88;;;23.10;56.70;;;;;;4975284;28;20355;-80
2021/06/23 13:16:30;;;;;;;5.13;1.85;;;23.00;56.80;;;;;;4993390;28;20029;-80
2021/06/23 13:18:56;;;;;;;3.15;1.45;;;22.80;57.10;;;;;;4975242;28;20056;-80
2021/06/23 13:21:23;;;;;;;41.42;5.65;;;22.70;57.50;;;;;;4975654;28;20019;-80
2021/06/23 13:23:49;;;;;;;7.10;2.45;;;22.50;57.80;;;;;;4975857;28;20018;-80
2021/06/23 13:26:16;;;;;;;3.45;1.60;;;22.50;58.10;;;;;;4975666;28;20038;-80